createdAt,value
2022-10-01T00:02:09.610Z,4.20
2022-10-01T00:04:37.506Z,4.10
2022-10-01T00:07:09.375Z,4.27
2022-10-01T00:09:36.398Z,2.67
2022-10-01T00:12:03.558Z,3.00
2022-10-01T00:14:30.444Z,4.10
2022-10-01T00:16:57.343Z,3.37
2022-10-01T00:19:24.377Z,5.23
2022-10-01T00:21:51.255Z,3.77
2022-10-01T00:24:18.805Z,5.77
2022-10-01T00:26:46.279Z,5.17
2022-10-01T00:29:14.902Z,3.60
2022-10-01T00:31:42.695Z,3.20
2022-10-01T00:34:13.123Z,5.53
2022-10-01T00:36:39.996Z,2.90
2022-10-01T00:39:07.063Z,6.20
2022-10-01T00:41:35.428Z,4.93
2022-10-01T00:44:35.451Z,4.27
2022-10-01T00:47:20.586Z,5.13
2022-10-01T00:49:50.729Z,5.30
2022-10-01T00:52:26.041Z,4.43
2022-10-01T00:54:57.578Z,5.73
2022-10-01T00:57:26.786Z,6.53
2022-10-01T00:59:56.931Z,4.33
2022-10-01T01:02:24.001Z,3.30
2022-10-01T01:04:51.132Z,5.33
2022-10-01T01:07:18.537Z,3.20
2022-10-01T01:09:51.058Z,3.73
2022-10-01T01:12:40.436Z,2.83
2022-10-01T01:15:28.521Z,4.77
2022-10-01T01:18:09.342Z,5.43
2022-10-01T01:20:45.602Z,4.10
2022-10-01T01:23:15.645Z,5.60
2022-10-01T01:25:54.207Z,5.33
2022-10-01T01:28:35.069Z,5.57
2022-10-01T01:31:09.530Z,3.00
2022-10-01T01:33:39.433Z,4.97
2022-10-01T01:36:20.115Z,4.73
2022-10-01T01:38:51.991Z,5.57
2022-10-01T01:41:20.503Z,5.00
2022-10-01T01:43:51.355Z,3.80
2022-10-01T01:46:20.146Z,7.73
2022-10-01T01:48:51.001Z,4.50
2022-10-01T01:51:32.482Z,6.70
2022-10-01T01:54:00.340Z,3.37
2022-10-01T01:56:27.607Z,3.43
2022-10-01T01:58:54.571Z,5.00
2022-10-01T02:01:40.168Z,5.17
2022-10-01T02:04:19.281Z,4.63
2022-10-01T02:07:21.068Z,3.30
2022-10-01T02:10:09.820Z,9.13
2022-10-01T02:12:42.519Z,3.73
2022-10-01T02:15:37.084Z,5.40
2022-10-01T02:18:23.278Z,4.27
2022-10-01T02:20:56.352Z,6.23
2022-10-01T02:23:29.953Z,5.30
2022-10-01T02:26:01.616Z,5.83
2022-10-01T02:28:32.609Z,4.63
2022-10-01T02:31:02.041Z,3.70
2022-10-01T02:33:35.629Z,3.73
2022-10-01T02:36:06.199Z,4.13
2022-10-01T02:38:36.613Z,5.23
2022-10-01T02:41:08.075Z,6.77
2022-10-01T02:43:42.699Z,4.07
2022-10-01T02:46:21.557Z,4.67
2022-10-01T02:48:49.217Z,4.40
2022-10-01T02:51:37.856Z,5.63
2022-10-01T02:54:22.616Z,4.33
2022-10-01T02:57:08.900Z,7.23
2022-10-01T02:59:35.821Z,4.70
2022-10-01T03:02:03.031Z,4.13
2022-10-01T03:04:30.021Z,4.80
2022-10-01T03:07:03.383Z,6.00
2022-10-01T03:09:34.685Z,7.47
2022-10-01T03:12:01.913Z,5.07
2022-10-01T03:14:29.468Z,6.07
2022-10-01T03:16:56.359Z,4.40
2022-10-01T03:19:23.227Z,5.10
2022-10-01T03:21:50.090Z,5.27
2022-10-01T03:24:17.120Z,4.50
2022-10-01T03:26:45.253Z,4.50
2022-10-01T03:29:13.257Z,4.00
2022-10-01T03:31:40.200Z,4.27
2022-10-01T03:34:07.302Z,3.40
2022-10-01T03:36:34.431Z,4.27
2022-10-01T03:39:02.161Z,5.63
2022-10-01T03:41:29.135Z,4.00
2022-10-01T03:44:00.286Z,6.87
2022-10-01T03:46:27.598Z,1.27
2022-10-01T03:48:57.237Z,4.60
2022-10-01T03:51:24.356Z,5.53
2022-10-01T03:53:51.353Z,4.07
2022-10-01T03:56:18.647Z,4.03
2022-10-01T03:58:45.558Z,4.80
2022-10-01T04:01:12.477Z,3.43
2022-10-01T04:03:40.214Z,3.30
2022-10-01T04:06:09.592Z,4.07
2022-10-01T04:08:37.823Z,2.83
2022-10-01T04:11:05.974Z,4.03
2022-10-01T04:13:34.299Z,3.30
2022-10-01T04:16:05.303Z,3.63
2022-10-01T04:18:32.564Z,5.67
2022-10-01T04:20:59.539Z,4.27
2022-10-01T04:23:26.816Z,3.37
2022-10-01T04:25:53.841Z,3.90
2022-10-01T04:28:20.802Z,0.50
2022-10-01T04:30:47.794Z,0.40
2022-10-01T04:33:16.592Z,0.40
2022-10-01T04:35:44.259Z,0.30
2022-10-01T04:38:16.870Z,0.40
2022-10-01T04:40:44.136Z,0.50
2022-10-01T04:43:12.493Z,0.40
2022-10-01T04:45:39.813Z,0.40
2022-10-01T04:48:06.785Z,0.40
2022-10-01T04:50:33.832Z,0.40
2022-10-01T04:53:00.822Z,0.50
2022-10-01T04:55:27.750Z,0.40
2022-10-01T04:57:54.726Z,0.50
2022-10-01T05:00:26.756Z,0.40
2022-10-01T05:02:54.565Z,0.40
2022-10-01T05:05:23.850Z,0.50
2022-10-01T05:07:51.134Z,0.40
2022-10-01T05:10:20.767Z,0.50
2022-10-01T05:12:49.083Z,0.40
2022-10-01T05:15:17.665Z,0.40
2022-10-01T05:17:44.634Z,0.50
2022-10-01T05:20:17.623Z,0.40
2022-10-01T05:22:45.613Z,0.50
2022-10-01T05:25:12.715Z,0.50
2022-10-01T05:27:40.786Z,0.50
2022-10-01T05:30:10.520Z,0.40
2022-10-01T05:32:38.051Z,0.40
2022-10-01T05:35:08.496Z,0.40
2022-10-01T05:37:35.591Z,0.40
2022-10-01T05:40:03.743Z,0.40
2022-10-01T05:42:30.663Z,0.30
2022-10-01T05:44:57.551Z,0.40
2022-10-01T05:47:24.430Z,0.47
2022-10-01T05:49:51.527Z,0.30
2022-10-01T05:52:18.376Z,0.30
2022-10-01T05:54:45.308Z,0.40
2022-10-01T05:57:12.300Z,0.40
2022-10-01T05:59:40.269Z,0.50
2022-10-01T06:02:09.730Z,0.40
2022-10-01T06:04:41.055Z,0.40
2022-10-01T06:07:08.304Z,0.50
2022-10-01T06:09:35.217Z,0.40
2022-10-01T06:12:02.674Z,0.40
2022-10-01T06:14:29.749Z,0.40
2022-10-01T06:16:56.715Z,0.40
2022-10-01T06:19:23.776Z,0.40
2022-10-01T06:21:53.703Z,0.40
2022-10-01T06:24:20.592Z,0.50
2022-10-01T06:26:48.611Z,0.40
2022-10-01T06:29:15.474Z,0.40
2022-10-01T06:31:42.424Z,0.40
2022-10-01T06:34:09.531Z,0.40
2022-10-01T06:36:36.600Z,0.40
2022-10-01T06:39:03.484Z,0.40
2022-10-01T06:41:30.420Z,0.50
2022-10-01T06:43:57.377Z,0.40
2022-10-01T06:46:24.277Z,0.40
2022-10-01T06:48:51.354Z,0.40
2022-10-01T06:51:38.477Z,0.43
2022-10-01T06:54:05.508Z,0.40
2022-10-01T06:56:32.540Z,0.40
2022-10-01T06:58:59.432Z,0.40
2022-10-01T07:01:26.360Z,0.40
2022-10-01T07:03:54.234Z,0.40
2022-10-01T07:06:21.180Z,0.40
2022-10-01T07:08:51.333Z,0.33
2022-10-01T07:11:19.071Z,0.40
2022-10-01T07:13:46.009Z,0.40
2022-10-01T07:16:12.987Z,0.40
2022-10-01T07:18:40.030Z,0.40
2022-10-01T07:21:06.960Z,0.40
2022-10-01T07:23:33.833Z,0.40
2022-10-01T07:26:03.202Z,0.30
2022-10-01T07:28:31.227Z,0.40
2022-10-01T07:31:05.273Z,0.43
2022-10-01T07:33:32.222Z,0.30
2022-10-01T07:36:05.213Z,0.40
2022-10-01T07:38:35.242Z,0.40
2022-10-01T07:41:03.491Z,0.40
2022-10-01T07:43:32.182Z,0.40
2022-10-01T07:46:00.271Z,0.40
2022-10-01T07:48:28.111Z,0.40
2022-10-01T07:50:55.198Z,0.40
2022-10-01T07:53:23.959Z,0.40
2022-10-01T07:55:51.036Z,0.40
2022-10-01T07:58:18.790Z,0.40
2022-10-01T08:00:45.810Z,0.40
2022-10-01T08:03:13.016Z,0.30
2022-10-01T08:05:43.343Z,0.40
2022-10-01T08:08:10.344Z,0.40
2022-10-01T08:10:38.536Z,0.40
2022-10-01T08:13:14.552Z,0.40
2022-10-01T08:15:47.069Z,0.40
2022-10-01T08:18:14.475Z,0.40
2022-10-01T08:20:41.647Z,0.40
2022-10-01T08:23:14.154Z,0.40
2022-10-01T08:25:43.219Z,0.30
2022-10-01T08:28:11.528Z,0.40
2022-10-01T08:30:43.100Z,0.40
2022-10-01T08:33:14.569Z,0.40
2022-10-01T08:35:43.458Z,0.40
2022-10-01T08:38:11.759Z,0.40
2022-10-01T08:40:47.371Z,0.40
2022-10-01T08:43:34.221Z,0.40
2022-10-01T08:46:23.211Z,0.40
2022-10-01T08:49:02.489Z,0.30
2022-10-01T08:51:36.245Z,0.37
2022-10-01T08:54:37.438Z,0.37
2022-10-01T08:57:09.589Z,0.40
2022-10-01T08:59:44.764Z,0.30
2022-10-01T09:02:33.072Z,0.30
2022-10-01T09:05:03.659Z,0.38
2022-10-01T09:07:55.350Z,0.30
2022-10-01T09:11:01.367Z,0.30
2022-10-01T09:13:49.927Z,0.30
2022-10-01T09:16:20.063Z,0.30
2022-10-01T09:19:09.505Z,0.30
2022-10-01T09:22:04.474Z,0.32
2022-10-01T09:24:50.931Z,0.30
2022-10-01T09:27:24.837Z,0.30
2022-10-01T09:29:58.274Z,0.30
2022-10-01T09:32:31.844Z,0.30
2022-10-01T09:35:05.852Z,0.30
2022-10-01T09:37:56.239Z,0.40
2022-10-01T09:40:57.183Z,0.30
2022-10-01T09:43:30.682Z,0.30
2022-10-01T09:45:58.249Z,0.30
2022-10-01T09:48:49.442Z,0.40
2022-10-01T09:51:22.231Z,0.30
2022-10-01T09:54:20.765Z,0.30
2022-10-01T09:57:16.162Z,0.30
2022-10-01T09:59:50.306Z,0.30
2022-10-01T10:02:31.464Z,0.30
2022-10-01T10:05:07.297Z,0.30
2022-10-01T10:07:35.182Z,0.30
2022-10-01T10:10:35.909Z,0.30
2022-10-01T10:13:11.132Z,0.30
2022-10-01T10:15:58.668Z,0.30
2022-10-01T10:18:36.388Z,0.30
2022-10-01T10:21:10.821Z,0.30
2022-10-01T10:23:50.372Z,0.30
2022-10-01T10:26:28.473Z,4.15
2022-10-01T10:28:58.520Z,6.05
2022-10-01T10:31:28.295Z,6.32
2022-10-01T10:34:18.078Z,5.47
2022-10-01T10:36:46.684Z,5.65
2022-10-01T10:39:29.348Z,3.92
2022-10-01T10:41:58.507Z,8.13
2022-10-01T10:44:30.205Z,10.02
2022-10-01T10:47:00.851Z,8.52
2022-10-01T10:49:31.674Z,4.95
2022-10-01T10:52:01.112Z,4.93
2022-10-01T10:54:40.051Z,5.13
2022-10-01T10:57:28.006Z,5.32
2022-10-01T11:00:19.409Z,5.18
2022-10-01T11:03:04.291Z,6.78
2022-10-01T11:05:33.041Z,3.55
2022-10-01T11:08:03.250Z,6.68
2022-10-01T11:10:54.781Z,4.43
2022-10-01T11:13:27.784Z,3.92
2022-10-01T11:16:24.323Z,3.65
2022-10-01T11:19:09.945Z,2.30
2022-10-01T11:21:54.098Z,4.82
2022-10-01T11:24:37.848Z,3.10
2022-10-01T11:27:36.269Z,3.40
2022-10-01T11:30:20.406Z,3.88
2022-10-01T11:32:50.210Z,4.38
2022-10-01T11:35:42.162Z,8.10
2022-10-01T11:38:27.472Z,3.47
2022-10-01T11:41:26.493Z,2.35
2022-10-01T11:44:18.220Z,4.00
2022-10-01T11:47:01.658Z,2.97
2022-10-01T11:49:50.427Z,2.42
2022-10-01T11:52:17.329Z,2.80
2022-10-01T11:55:30.390Z,2.38
2022-10-01T11:58:36.855Z,3.63
2022-10-01T12:01:06.366Z,4.88
2022-10-01T12:03:45.751Z,2.92
2022-10-01T12:06:14.848Z,1.65
2022-10-01T12:08:48.205Z,3.65
2022-10-01T12:11:23.464Z,6.70
2022-10-01T12:14:04.402Z,4.28
2022-10-01T12:16:52.109Z,3.67
2022-10-01T12:19:33.483Z,6.05
2022-10-01T12:22:24.768Z,3.65
2022-10-01T12:24:52.854Z,4.70
2022-10-01T12:27:41.402Z,4.45
2022-10-01T12:30:14.278Z,4.57
2022-10-01T12:33:13.480Z,2.63
2022-10-01T12:35:59.019Z,3.28
2022-10-01T12:38:28.692Z,4.17
2022-10-01T12:41:19.335Z,3.93
2022-10-01T12:44:13.747Z,4.50
2022-10-01T12:47:12.436Z,5.00
2022-10-01T12:49:49.905Z,3.13
2022-10-01T12:52:27.975Z,2.67
2022-10-01T12:54:57.713Z,5.87
2022-10-01T12:57:57.854Z,5.50
2022-10-01T13:00:27.426Z,9.53
2022-10-01T13:03:03.309Z,3.67
2022-10-01T13:05:36.324Z,5.37
2022-10-01T13:08:18.481Z,5.37
2022-10-01T13:11:32.728Z,9.60
2022-10-01T13:14:00.931Z,3.53
2022-10-01T13:16:46.199Z,5.63
2022-10-01T13:19:36.052Z,4.70
2022-10-01T13:22:41.800Z,5.63
2022-10-01T13:25:25.053Z,4.93
2022-10-01T13:27:59.616Z,4.67
2022-10-01T13:30:32.829Z,8.55
2022-10-01T13:33:01.122Z,5.38
2022-10-01T13:35:39.389Z,7.38
2022-10-01T13:38:30.367Z,5.57
2022-10-01T13:41:16.465Z,8.75
2022-10-01T13:43:59.216Z,7.40
2022-10-01T13:46:31.114Z,10.43
2022-10-01T13:49:13.656Z,5.40
2022-10-01T13:51:42.308Z,7.63
2022-10-01T13:54:22.460Z,8.18
2022-10-01T13:56:49.373Z,10.38
2022-10-01T13:59:37.129Z,6.72
2022-10-01T14:02:34.705Z,9.88
2022-10-01T14:05:27.223Z,9.02
2022-10-01T14:08:11.505Z,6.97
2022-10-01T14:11:06.093Z,8.43
2022-10-01T14:14:01.490Z,6.55
2022-10-01T14:16:30.298Z,7.07
2022-10-01T14:18:57.548Z,8.45
2022-10-01T14:21:37.292Z,9.18
2022-10-01T14:24:21.101Z,8.35
2022-10-01T14:27:09.468Z,8.88
2022-10-01T14:29:45.315Z,6.53
2022-10-01T14:32:35.450Z,8.25
2022-10-01T14:35:08.414Z,5.43
2022-10-01T14:37:41.378Z,8.45
2022-10-01T14:40:21.080Z,7.80
2022-10-01T14:43:01.747Z,8.57
2022-10-01T14:45:29.982Z,5.70
2022-10-01T14:48:05.259Z,8.68
2022-10-01T14:50:35.166Z,4.72
2022-10-01T14:53:02.236Z,6.65
2022-10-01T14:55:30.634Z,8.75
2022-10-01T14:57:58.376Z,5.63
2022-10-01T15:00:27.661Z,12.13
2022-10-01T15:03:17.569Z,5.30
2022-10-01T15:05:46.556Z,3.03
2022-10-01T15:08:21.270Z,7.55
2022-10-01T15:10:55.398Z,6.65
2022-10-01T15:13:27.556Z,10.68
2022-10-01T15:15:55.637Z,14.27
2022-10-01T15:18:23.626Z,10.90
2022-10-01T15:21:06.402Z,7.40
2022-10-01T15:23:38.434Z,9.55
2022-10-01T15:26:11.327Z,8.18
2022-10-01T15:28:38.223Z,24.63
2022-10-01T15:31:06.645Z,16.38
2022-10-01T15:33:40.452Z,13.85
2022-10-01T15:36:17.515Z,18.05
2022-10-01T15:38:46.663Z,15.85
2022-10-01T15:41:32.350Z,13.18
2022-10-01T15:44:03.416Z,10.05
2022-10-01T15:46:35.263Z,23.20
2022-10-01T15:49:20.353Z,22.90
2022-10-01T15:52:22.280Z,21.92
2022-10-01T15:54:59.041Z,13.00
2022-10-01T15:57:28.195Z,21.80
2022-10-01T15:59:58.067Z,24.65
2022-10-01T16:02:30.994Z,20.48
2022-10-01T16:05:18.591Z,20.75
2022-10-01T16:07:56.274Z,14.93
2022-10-01T16:10:34.100Z,13.95
2022-10-01T16:13:31.865Z,15.05
2022-10-01T16:16:10.995Z,10.95
2022-10-01T16:18:39.291Z,10.07
2022-10-01T16:21:09.276Z,7.23
2022-10-01T16:23:49.493Z,11.23
2022-10-01T16:26:32.310Z,9.05
2022-10-01T16:29:14.696Z,10.48
2022-10-01T16:31:44.456Z,20.10
2022-10-01T16:34:17.191Z,11.07
2022-10-01T16:36:46.562Z,9.10
2022-10-01T16:39:15.134Z,7.65
2022-10-01T16:41:44.741Z,9.63
2022-10-01T16:44:13.879Z,8.32
2022-10-01T16:46:41.347Z,7.10
2022-10-01T16:49:15.695Z,12.70
2022-10-01T16:51:43.007Z,18.60
2022-10-01T16:54:23.624Z,21.00
2022-10-01T16:56:52.346Z,18.83
2022-10-01T16:59:22.368Z,15.57
2022-10-01T17:01:53.582Z,22.77
2022-10-01T17:04:21.902Z,15.67
2022-10-01T17:06:48.838Z,22.03
2022-10-01T17:09:15.703Z,22.83
2022-10-01T17:11:43.517Z,19.70
2022-10-01T17:14:16.723Z,15.33
2022-10-01T17:16:44.135Z,26.13
2022-10-01T17:19:13.235Z,15.20
2022-10-01T17:21:40.687Z,19.58
2022-10-01T17:24:10.838Z,15.77
2022-10-01T17:26:42.501Z,14.70
2022-10-01T17:29:10.159Z,17.08
2022-10-01T17:31:40.634Z,14.23
2022-10-01T17:34:08.372Z,13.93
2022-10-01T17:36:35.500Z,14.50
2022-10-01T17:39:02.646Z,13.47
2022-10-01T17:41:29.702Z,15.70
2022-10-01T17:43:58.055Z,7.63
2022-10-01T17:46:25.006Z,9.93
2022-10-01T17:48:52.149Z,7.07
2022-10-01T17:51:19.857Z,10.27
2022-10-01T17:53:47.025Z,11.33
2022-10-01T17:56:18.475Z,11.27
2022-10-01T17:58:46.138Z,10.87
2022-10-01T18:01:19.745Z,10.00
2022-10-01T18:03:47.122Z,8.03
2022-10-01T18:06:15.467Z,11.13
2022-10-01T18:08:55.186Z,8.13
2022-10-01T18:11:24.237Z,9.93
2022-10-01T18:13:52.642Z,14.70
2022-10-01T18:16:19.912Z,17.27
2022-10-01T18:21:34.523Z,68.23
2022-10-01T18:24:04.748Z,29.50
2022-10-01T18:26:33.095Z,20.40
2022-10-01T18:29:00.308Z,31.63
2022-10-01T18:31:35.733Z,16.23
2022-10-01T18:34:06.171Z,25.33
2022-10-01T18:36:42.714Z,121.97
2022-10-01T18:39:33.828Z,27.63
2022-10-01T18:42:16.267Z,40.70
2022-10-01T18:44:43.517Z,25.83
2022-10-01T18:47:35.300Z,28.87
2022-10-01T18:50:21.584Z,21.37
2022-10-01T18:53:36.410Z,37.37
2022-10-01T18:56:33.535Z,25.53
2022-10-01T18:59:14.363Z,35.10
2022-10-01T19:02:32.205Z,39.10
2022-10-01T19:05:01.922Z,24.27
2022-10-01T19:07:31.987Z,31.27
2022-10-01T19:10:25.211Z,15.47
2022-10-01T19:13:14.152Z,13.90
2022-10-01T19:15:47.918Z,16.27
2022-10-01T19:18:37.509Z,23.60
2022-10-01T19:21:21.167Z,24.23
2022-10-01T19:23:54.136Z,14.40
2022-10-01T19:26:58.741Z,13.30
2022-10-01T19:29:38.813Z,10.50
2022-10-01T19:32:38.055Z,14.73
2022-10-01T19:35:26.087Z,14.17
2022-10-01T19:37:57.794Z,12.87
2022-10-01T19:41:03.783Z,13.20
2022-10-01T19:43:39.364Z,12.90
2022-10-01T19:46:19.242Z,9.93
2022-10-01T19:49:08.523Z,16.77
2022-10-01T19:52:10.033Z,12.00
2022-10-01T19:54:42.873Z,8.97
2022-10-01T19:57:13.343Z,13.20
2022-10-01T19:59:41.238Z,8.50
2022-10-01T20:02:27.594Z,19.33
2022-10-01T20:05:02.175Z,12.07
2022-10-01T20:07:35.536Z,10.07
2022-10-01T20:10:38.371Z,16.40
2022-10-01T20:13:24.393Z,15.47
2022-10-01T20:16:15.779Z,11.43
2022-10-01T20:19:00.765Z,15.33
2022-10-01T20:21:45.854Z,11.97
2022-10-01T20:24:31.558Z,10.33
2022-10-01T20:27:27.988Z,22.30
2022-10-01T20:30:04.909Z,12.93
2022-10-01T20:32:47.476Z,17.13
2022-10-01T20:35:23.860Z,11.20
2022-10-01T20:38:23.982Z,13.10
2022-10-01T20:40:56.416Z,12.47
2022-10-01T20:43:49.103Z,15.00
2022-10-01T20:46:36.361Z,12.90
2022-10-01T20:49:24.503Z,16.63
2022-10-01T20:52:17.341Z,14.13
2022-10-01T20:54:48.181Z,8.17
2022-10-01T20:58:06.299Z,14.33
2022-10-01T21:00:37.353Z,12.40
2022-10-01T21:03:29.373Z,14.60
2022-10-01T21:06:13.657Z,8.33
2022-10-01T21:09:25.344Z,14.90
2022-10-01T21:12:08.489Z,11.63
2022-10-01T21:14:53.745Z,16.40
2022-10-01T21:17:54.363Z,10.50
2022-10-01T21:20:44.123Z,14.83
2022-10-01T21:23:16.676Z,14.93
2022-10-01T21:25:54.826Z,15.53
2022-10-01T21:28:33.835Z,13.17
2022-10-01T21:31:45.473Z,16.27
2022-10-01T21:34:17.827Z,11.50
2022-10-01T21:37:03.365Z,17.17
2022-10-01T21:39:40.337Z,12.13
2022-10-01T21:42:38.935Z,16.30
2022-10-01T21:45:39.196Z,15.30
2022-10-01T21:48:24.990Z,17.17
2022-10-01T21:51:01.212Z,16.87
2022-10-01T21:53:29.265Z,14.83
2022-10-01T21:56:08.237Z,14.03
2022-10-01T21:58:50.117Z,15.80
2022-10-01T22:01:44.817Z,14.23
2022-10-01T22:04:27.641Z,13.83
2022-10-01T22:07:12.882Z,13.33
2022-10-01T22:09:57.389Z,13.97
2022-10-01T22:12:30.820Z,17.87
2022-10-01T22:14:59.667Z,13.07
2022-10-01T22:17:33.145Z,15.63
2022-10-01T22:20:06.911Z,14.80
2022-10-01T22:22:38.358Z,15.40
2022-10-01T22:25:08.256Z,14.80
2022-10-01T22:28:04.553Z,17.63
2022-10-01T22:30:36.920Z,13.57
2022-10-01T22:33:16.484Z,17.00
2022-10-01T22:35:46.419Z,15.47
2022-10-01T22:38:54.324Z,15.57
2022-10-01T22:41:35.360Z,17.30
2022-10-01T22:44:17.690Z,20.07
2022-10-01T22:47:12.159Z,19.80
2022-10-01T22:49:57.083Z,22.67
2022-10-01T22:52:51.107Z,16.53
2022-10-01T22:55:36.839Z,16.90
2022-10-01T22:58:31.349Z,16.53
2022-10-01T23:01:17.996Z,12.83
2022-10-01T23:04:10.460Z,16.60
2022-10-01T23:06:59.633Z,14.07
2022-10-01T23:09:38.902Z,21.67
2022-10-01T23:12:33.882Z,17.40
2022-10-01T23:15:54.336Z,14.27
2022-10-01T23:18:35.196Z,17.03
2022-10-01T23:21:27.018Z,15.97
2022-10-01T23:24:40.481Z,16.00
2022-10-01T23:27:26.122Z,15.50
2022-10-01T23:29:59.529Z,17.87
2022-10-01T23:33:06.947Z,18.73
2022-10-01T23:35:44.819Z,20.47
2022-10-01T23:38:27.829Z,19.07
2022-10-01T23:40:59.929Z,16.83
2022-10-01T23:43:40.264Z,15.83
2022-10-01T23:46:22.762Z,21.57
2022-10-01T23:49:04.801Z,17.97
2022-10-01T23:51:38.543Z,19.77
2022-10-01T23:54:53.975Z,15.20
2022-10-01T23:57:28.430Z,16.87
